createdAt,value
2019-02-14T00:02:08.384Z,88.20
2019-02-14T00:04:37.460Z,89.55
2019-02-14T00:07:07.781Z,89.81
2019-02-14T00:09:36.903Z,89.78
2019-02-14T00:12:06.133Z,89.43
2019-02-14T00:14:35.565Z,89.75
2019-02-14T00:17:05.159Z,89.94
2019-02-14T00:19:34.905Z,90.17
2019-02-14T00:22:04.155Z,90.44
2019-02-14T00:24:35.234Z,89.17
2019-02-14T00:27:04.382Z,88.62
2019-02-14T00:29:33.475Z,88.94
2019-02-14T00:32:02.657Z,89.24
2019-02-14T00:34:31.770Z,89.61
2019-02-14T00:37:01.919Z,89.79
2019-02-14T00:39:31.017Z,89.59
2019-02-14T00:42:00.147Z,89.16
2019-02-14T00:44:29.302Z,89.36
2019-02-14T00:46:58.829Z,89.57
2019-02-14T00:49:30.207Z,89.21
2019-02-14T00:51:59.324Z,88.44
2019-02-14T00:54:30.753Z,89.48
2019-02-14T00:57:02.298Z,90.03
2019-02-14T00:59:31.500Z,92.63
2019-02-14T01:02:04.944Z,93.37
2019-02-14T01:04:34.103Z,93.05
2019-02-14T01:07:04.683Z,92.29
2019-02-14T01:09:33.871Z,92.40
2019-02-14T01:12:03.383Z,91.90
2019-02-14T01:14:32.811Z,91.56
2019-02-14T01:17:01.957Z,90.13
2019-02-14T01:19:31.147Z,90.09
2019-02-14T01:22:00.244Z,88.68
2019-02-14T01:24:29.391Z,91.45
2019-02-14T01:26:58.507Z,92.23
2019-02-14T01:29:27.641Z,93.00
2019-02-14T01:31:56.812Z,94.31
2019-02-14T01:34:25.998Z,94.00
2019-02-14T01:36:55.063Z,93.38
2019-02-14T01:39:24.214Z,92.74
2019-02-14T01:41:53.313Z,92.38
2019-02-14T01:44:22.425Z,91.26
2019-02-14T01:46:51.557Z,90.39
2019-02-14T01:49:20.656Z,91.29
2019-02-14T01:51:51.781Z,92.07
2019-02-14T01:54:21.006Z,92.82
2019-02-14T01:56:50.039Z,93.30
2019-02-14T01:59:19.177Z,93.63
2019-02-14T02:01:50.613Z,92.69
2019-02-14T02:04:19.749Z,91.35
2019-02-14T02:06:48.827Z,91.12
2019-02-14T02:09:18.011Z,90.70
2019-02-14T02:11:49.362Z,90.13
2019-02-14T02:14:25.126Z,89.58
2019-02-14T02:16:55.070Z,88.50
2019-02-14T02:19:24.299Z,87.99
2019-02-14T02:21:53.352Z,87.73
2019-02-14T02:24:24.086Z,87.62
2019-02-14T02:26:54.861Z,87.71
2019-02-14T02:29:26.053Z,87.91
2019-02-14T02:31:55.167Z,87.58
2019-02-14T02:34:26.597Z,87.24
2019-02-14T02:36:57.288Z,87.62
2019-02-14T02:39:26.427Z,87.56
2019-02-14T02:41:58.041Z,87.41
2019-02-14T02:44:29.257Z,87.26
2019-02-14T02:46:59.606Z,87.96
2019-02-14T02:49:29.482Z,88.13
2019-02-14T02:52:00.866Z,87.19
2019-02-14T02:54:29.995Z,87.99
2019-02-14T02:57:00.311Z,87.49
2019-02-14T02:59:29.472Z,87.55
2019-02-14T03:01:58.537Z,87.33
2019-02-14T03:04:27.687Z,87.64
2019-02-14T03:06:58.336Z,87.00
2019-02-14T03:09:27.443Z,87.53
2019-02-14T03:11:56.635Z,87.41
2019-02-14T03:14:25.817Z,87.27
2019-02-14T03:16:54.915Z,87.25
2019-02-14T03:19:24.080Z,86.48
2019-02-14T03:21:53.133Z,87.12
2019-02-14T03:24:22.258Z,86.90
2019-02-14T03:26:51.395Z,87.62
2019-02-14T03:29:20.525Z,86.91
2019-02-14T03:31:49.569Z,86.71
2019-02-14T03:34:18.721Z,86.75
2019-02-14T03:36:47.751Z,86.35
2019-02-14T03:39:16.884Z,86.95
2019-02-14T03:41:46.002Z,88.15
2019-02-14T03:44:18.229Z,88.66
2019-02-14T03:46:49.732Z,88.68
2019-02-14T03:49:18.846Z,89.29
2019-02-14T03:51:47.944Z,89.34
2019-02-14T03:54:18.088Z,88.46
2019-02-14T03:56:47.195Z,88.14
2019-02-14T03:59:16.318Z,86.97
2019-02-14T04:01:47.439Z,86.89
2019-02-14T04:04:17.660Z,86.47
2019-02-14T04:06:46.729Z,86.55
2019-02-14T04:09:15.835Z,87.08
2019-02-14T04:11:47.057Z,87.46
2019-02-14T04:14:17.222Z,87.54
2019-02-14T04:16:46.726Z,87.73
2019-02-14T04:19:15.913Z,87.82
2019-02-14T04:21:47.311Z,86.92
2019-02-14T04:24:16.496Z,87.15
2019-02-14T04:26:45.658Z,86.72
2019-02-14T04:29:14.842Z,87.13
2019-02-14T04:31:44.041Z,87.86
2019-02-14T04:34:13.318Z,87.82
2019-02-14T04:36:42.369Z,87.30
2019-02-14T04:39:11.555Z,87.41
2019-02-14T04:41:40.628Z,86.52
2019-02-14T04:44:11.839Z,87.33
2019-02-14T04:46:40.934Z,86.17
2019-02-14T04:49:10.104Z,86.92
2019-02-14T04:51:41.369Z,86.70
2019-02-14T04:54:10.540Z,86.83
2019-02-14T04:56:39.686Z,86.73
2019-02-14T04:59:08.787Z,86.37
2019-02-14T05:01:39.675Z,86.89
2019-02-14T05:04:08.804Z,86.86
2019-02-14T05:06:44.306Z,87.09
2019-02-14T05:09:12.003Z,87.14
2019-02-14T05:11:41.140Z,86.38
2019-02-14T05:14:12.531Z,86.38
2019-02-14T05:16:42.899Z,85.91
2019-02-14T05:19:13.147Z,87.79
2019-02-14T05:21:42.273Z,87.10
2019-02-14T05:24:11.369Z,85.88
2019-02-14T05:26:40.480Z,87.29
2019-02-14T05:29:09.601Z,87.32
2019-02-14T05:31:39.917Z,88.11
2019-02-14T05:34:09.085Z,88.02
2019-02-14T05:36:40.320Z,90.36
2019-02-14T05:39:09.442Z,92.14
2019-02-14T05:41:38.559Z,92.86
2019-02-14T05:44:07.742Z,93.33
2019-02-14T05:46:36.846Z,92.37
2019-02-14T05:49:05.996Z,92.15
2019-02-14T05:51:35.179Z,92.78
2019-02-14T05:54:06.644Z,90.96
2019-02-14T05:56:35.847Z,91.65
2019-02-14T05:59:04.893Z,92.65
2019-02-14T06:01:34.072Z,93.04
2019-02-14T06:04:03.146Z,92.50
2019-02-14T06:06:32.309Z,91.89
2019-02-14T06:09:01.437Z,92.44
2019-02-14T06:11:30.613Z,92.81
2019-02-14T06:13:59.747Z,90.22
2019-02-14T06:16:30.526Z,91.06
2019-02-14T06:19:01.618Z,90.54
2019-02-14T06:21:30.697Z,90.86
2019-02-14T06:24:01.905Z,91.62
2019-02-14T06:26:31.100Z,90.77
2019-02-14T06:29:01.833Z,91.14
2019-02-14T06:31:30.994Z,90.32
2019-02-14T06:34:00.066Z,91.76
2019-02-14T06:36:30.267Z,92.20
2019-02-14T06:38:59.351Z,92.05
2019-02-14T06:41:28.519Z,90.32
2019-02-14T06:43:57.697Z,91.53
2019-02-14T06:46:26.816Z,91.14
2019-02-14T06:48:55.966Z,90.42
2019-02-14T06:51:25.205Z,88.65
2019-02-14T06:53:54.444Z,88.50
2019-02-14T06:56:23.626Z,89.46
2019-02-14T06:58:52.702Z,89.38
2019-02-14T07:01:23.865Z,90.17
2019-02-14T07:03:53.017Z,89.69
2019-02-14T07:06:22.222Z,88.89
2019-02-14T07:08:54.989Z,89.20
2019-02-14T07:11:24.167Z,89.65
2019-02-14T07:13:53.247Z,88.19
2019-02-14T07:16:23.912Z,88.52
2019-02-14T07:18:54.064Z,90.43
2019-02-14T07:21:25.421Z,90.62
2019-02-14T07:23:54.471Z,91.31
2019-02-14T07:26:23.634Z,91.75
2019-02-14T07:28:52.782Z,91.86
2019-02-14T07:31:24.054Z,91.10
2019-02-14T07:33:53.118Z,89.35
2019-02-14T07:36:24.260Z,88.01
2019-02-14T07:38:53.375Z,86.53
2019-02-14T07:41:22.546Z,87.90
2019-02-14T07:43:51.826Z,87.88
2019-02-14T07:46:22.713Z,87.83
2019-02-14T07:48:52.202Z,88.15
2019-02-14T07:51:23.434Z,88.01
2019-02-14T07:53:55.051Z,88.52
2019-02-14T07:56:24.265Z,88.92
2019-02-14T07:58:54.863Z,88.84
2019-02-14T08:01:26.107Z,88.76
2019-02-14T08:03:55.920Z,86.46
2019-02-14T08:06:25.129Z,86.17
2019-02-14T08:08:58.104Z,88.73
2019-02-14T08:11:27.202Z,91.13
2019-02-14T08:13:56.348Z,89.66
2019-02-14T08:16:27.502Z,91.59
2019-02-14T08:19:00.045Z,89.41
2019-02-14T08:21:29.401Z,86.42
2019-02-14T08:24:00.427Z,87.42
2019-02-14T08:26:29.539Z,88.15
2019-02-14T08:29:00.074Z,89.60
2019-02-14T08:31:29.255Z,87.01
2019-02-14T08:33:59.340Z,87.88
2019-02-14T08:36:28.472Z,88.00
2019-02-14T08:38:59.716Z,87.15
2019-02-14T08:41:30.600Z,87.54
2019-02-14T08:44:05.219Z,88.78
2019-02-14T08:46:35.172Z,86.18
2019-02-14T08:49:06.489Z,86.30
2019-02-14T08:51:36.707Z,84.84
2019-02-14T08:54:06.591Z,82.63
2019-02-14T08:56:35.753Z,83.34
2019-02-14T08:59:06.422Z,82.81
2019-02-14T09:01:36.575Z,83.70
2019-02-14T09:04:05.651Z,83.36
2019-02-14T09:06:35.745Z,83.38
2019-02-14T09:09:09.128Z,80.90
2019-02-14T09:11:38.240Z,76.93
2019-02-14T09:14:07.349Z,77.77
2019-02-14T09:16:36.707Z,77.20
2019-02-14T09:19:05.925Z,78.58
2019-02-14T09:21:35.436Z,78.93
2019-02-14T09:24:04.640Z,77.55
2019-02-14T09:26:33.791Z,76.13
2019-02-14T09:29:03.022Z,72.41
2019-02-14T09:31:32.110Z,76.54
2019-02-14T09:34:01.235Z,72.08
2019-02-14T09:36:30.336Z,70.60
2019-02-14T09:38:59.428Z,71.99
2019-02-14T09:41:28.509Z,70.11
2019-02-14T09:43:57.710Z,69.72
2019-02-14T09:46:26.817Z,69.78
2019-02-14T09:48:55.963Z,68.56
2019-02-14T09:51:25.064Z,65.73
2019-02-14T09:53:54.237Z,67.94
2019-02-14T09:56:23.463Z,65.96
2019-02-14T09:58:52.555Z,63.73
2019-02-14T10:01:21.676Z,64.24
2019-02-14T10:03:52.332Z,64.67
2019-02-14T10:06:21.428Z,64.56
2019-02-14T10:08:52.255Z,70.04
2019-02-14T10:11:23.395Z,69.24
2019-02-14T10:13:52.598Z,68.87
2019-02-14T10:16:24.026Z,68.46
2019-02-14T10:18:54.116Z,68.55
2019-02-14T10:21:25.560Z,72.90
2019-02-14T10:23:54.635Z,61.07
2019-02-14T10:26:23.787Z,60.56
2019-02-14T10:28:52.907Z,59.47
2019-02-14T10:31:23.748Z,59.95
2019-02-14T10:33:52.933Z,60.91
2019-02-14T10:36:22.017Z,59.10
2019-02-14T10:38:51.142Z,64.10
2019-02-14T10:41:21.895Z,60.42
2019-02-14T10:43:51.062Z,63.99
2019-02-14T10:46:20.202Z,61.44
2019-02-14T10:48:51.279Z,65.00
2019-02-14T10:51:20.402Z,64.23
2019-02-14T10:53:49.471Z,61.75
2019-02-14T10:56:18.591Z,60.95
2019-02-14T10:58:50.175Z,61.97
2019-02-14T11:01:20.395Z,59.87
2019-02-14T11:03:49.459Z,60.32
2019-02-14T11:06:20.711Z,59.87
2019-02-14T11:08:49.828Z,60.37
2019-02-14T11:11:18.987Z,62.19
2019-02-14T11:13:48.107Z,58.27
2019-02-14T11:16:19.036Z,57.59
2019-02-14T11:18:48.246Z,56.23
2019-02-14T11:21:17.411Z,58.74
2019-02-14T11:23:48.733Z,59.37
2019-02-14T11:26:20.113Z,58.90
2019-02-14T11:28:50.460Z,57.43
2019-02-14T11:31:21.895Z,58.30
2019-02-14T11:33:54.031Z,57.87
2019-02-14T11:36:23.205Z,56.73
2019-02-14T11:38:53.536Z,54.85
2019-02-14T11:41:27.284Z,55.25
2019-02-14T11:43:56.399Z,56.64
2019-02-14T11:46:25.581Z,56.53
2019-02-14T11:48:56.250Z,52.64
2019-02-14T11:51:25.383Z,49.58
2019-02-14T11:53:54.496Z,48.78
2019-02-14T11:56:23.666Z,48.40
2019-02-14T11:58:52.794Z,47.50
2019-02-14T12:01:21.860Z,47.21
2019-02-14T12:03:50.926Z,43.23
2019-02-14T12:06:23.840Z,43.90
2019-02-14T12:09:00.146Z,45.95
2019-02-14T12:11:25.085Z,47.77
2019-02-14T12:13:54.213Z,47.21
2019-02-14T12:16:23.335Z,46.48
2019-02-14T12:18:54.938Z,49.17
2019-02-14T12:21:25.159Z,46.32
2019-02-14T12:23:56.685Z,46.09
2019-02-14T12:26:25.892Z,45.45
2019-02-14T12:28:56.581Z,44.84
2019-02-14T12:31:25.695Z,44.92
2019-02-14T12:33:54.919Z,45.72
2019-02-14T12:36:24.061Z,45.87
2019-02-14T12:38:54.027Z,44.64
2019-02-14T12:41:23.134Z,43.47
2019-02-14T12:43:52.306Z,43.75
2019-02-14T12:46:24.067Z,43.84
2019-02-14T12:48:53.259Z,43.14
2019-02-14T12:51:23.493Z,43.05
2019-02-14T12:53:52.566Z,43.23
2019-02-14T12:56:21.683Z,43.17
2019-02-14T12:58:50.900Z,42.80
2019-02-14T13:01:22.052Z,41.82
2019-02-14T13:03:54.647Z,41.88
2019-02-14T13:06:23.711Z,42.21
2019-02-14T13:08:54.415Z,41.99
2019-02-14T13:11:23.495Z,42.12
2019-02-14T13:13:52.711Z,42.13
2019-02-14T13:16:24.029Z,41.68
2019-02-14T13:18:53.783Z,43.02
2019-02-14T13:21:22.917Z,42.07
2019-02-14T13:23:52.103Z,42.09
2019-02-14T13:26:24.077Z,41.65
2019-02-14T13:28:53.171Z,42.39
2019-02-14T13:31:31.350Z,43.10
2019-02-14T13:33:53.240Z,43.87
2019-02-14T13:36:22.360Z,43.12
2019-02-14T13:38:51.596Z,44.03
2019-02-14T13:41:30.671Z,43.84
2019-02-14T13:43:51.504Z,44.94
2019-02-14T13:46:21.297Z,44.36
2019-02-14T13:48:50.575Z,44.17
2019-02-14T13:51:26.165Z,44.35
2019-02-14T13:53:55.491Z,44.37
2019-02-14T13:56:25.264Z,43.78
2019-02-14T13:58:55.669Z,44.23
2019-02-14T14:01:24.749Z,45.83
2019-02-14T14:03:53.929Z,45.12
2019-02-14T14:06:25.397Z,45.75
2019-02-14T14:08:56.023Z,45.76
2019-02-14T14:11:25.192Z,45.44
2019-02-14T14:13:54.379Z,44.46
2019-02-14T14:16:23.513Z,45.70
2019-02-14T14:18:52.644Z,45.44
2019-02-14T14:21:21.737Z,46.03
2019-02-14T14:23:50.862Z,46.82
2019-02-14T14:26:19.903Z,46.72
2019-02-14T14:28:49.032Z,46.11
2019-02-14T14:31:19.284Z,46.06
2019-02-14T14:33:48.383Z,45.69
2019-02-14T14:36:17.515Z,45.44
2019-02-14T14:38:46.577Z,45.80
2019-02-14T14:41:15.700Z,46.33
2019-02-14T14:44:02.278Z,46.28
2019-02-14T14:46:39.412Z,46.84
2019-02-14T14:49:13.749Z,46.13
2019-02-14T14:51:42.828Z,46.38
2019-02-14T14:54:14.354Z,47.18
2019-02-14T14:56:43.483Z,48.06
2019-02-14T14:59:12.573Z,47.40
2019-02-14T15:01:44.008Z,47.51
2019-02-14T15:04:15.433Z,48.37
2019-02-14T15:06:44.643Z,48.40
2019-02-14T15:09:15.586Z,48.11
2019-02-14T15:11:44.856Z,48.25
2019-02-14T15:14:13.991Z,47.08
2019-02-14T15:16:45.083Z,48.39
2019-02-14T15:19:17.908Z,49.38
2019-02-14T15:21:47.042Z,48.05
2019-02-14T15:24:16.224Z,46.96
2019-02-14T15:26:45.411Z,49.05
2019-02-14T15:29:14.615Z,50.14
2019-02-14T15:31:44.398Z,50.82
2019-02-14T15:34:15.872Z,50.21
2019-02-14T15:36:45.033Z,49.62
2019-02-14T15:39:14.372Z,48.37
2019-02-14T15:41:44.283Z,48.63
2019-02-14T15:44:14.521Z,48.38
2019-02-14T15:46:44.059Z,50.40
2019-02-14T15:49:13.307Z,51.70
2019-02-14T15:51:43.795Z,52.47
2019-02-14T15:54:13.224Z,53.48
2019-02-14T15:56:42.299Z,53.28
2019-02-14T15:59:11.400Z,53.43
2019-02-14T16:01:42.722Z,54.13
2019-02-14T16:04:11.314Z,54.30
2019-02-14T16:06:40.471Z,54.78
2019-02-14T16:09:09.564Z,55.58
2019-02-14T16:11:39.768Z,54.93
2019-02-14T16:14:08.911Z,56.67
2019-02-14T16:16:37.983Z,58.23
2019-02-14T16:19:08.727Z,59.57
2019-02-14T16:21:40.213Z,59.65
2019-02-14T16:24:09.260Z,59.84
2019-02-14T16:26:39.637Z,60.36
2019-02-14T16:29:08.754Z,60.28
2019-02-14T16:31:37.920Z,61.20
2019-02-14T16:34:07.007Z,62.99
2019-02-14T16:36:38.366Z,63.91
2019-02-14T16:39:07.478Z,62.66
2019-02-14T16:41:36.655Z,64.15
2019-02-14T16:44:05.796Z,65.54
2019-02-14T16:46:34.901Z,67.25
2019-02-14T16:49:06.484Z,67.79
2019-02-14T16:51:35.579Z,67.94
2019-02-14T16:54:04.639Z,69.24
2019-02-14T16:56:33.672Z,70.10
2019-02-14T16:59:02.770Z,70.19
2019-02-14T17:01:31.932Z,70.49
2019-02-14T17:04:01.068Z,71.04
2019-02-14T17:06:30.122Z,71.65
2019-02-14T17:08:59.224Z,72.18
2019-02-14T17:11:28.289Z,72.54
2019-02-14T17:13:57.392Z,72.91
2019-02-14T17:16:28.197Z,73.07
2019-02-14T17:18:57.398Z,73.23
2019-02-14T17:21:26.493Z,74.47
2019-02-14T17:23:55.677Z,75.24
2019-02-14T17:26:24.712Z,75.55
2019-02-14T17:28:54.805Z,76.12
2019-02-14T17:31:24.171Z,76.73
2019-02-14T17:33:53.324Z,76.90
2019-02-14T17:36:23.655Z,77.73
2019-02-14T17:38:52.903Z,77.09
2019-02-14T17:41:22.200Z,77.78
2019-02-14T17:43:51.354Z,78.24
2019-02-14T17:46:20.452Z,78.40
2019-02-14T17:48:49.878Z,78.51
2019-02-14T17:51:20.071Z,78.62
2019-02-14T17:53:51.570Z,79.17
2019-02-14T17:56:20.619Z,79.62
2019-02-14T17:58:49.693Z,79.92
2019-02-14T18:01:18.777Z,80.23
2019-02-14T18:03:47.842Z,79.78
2019-02-14T18:06:16.980Z,80.83
2019-02-14T18:08:46.071Z,80.67
2019-02-14T18:11:17.417Z,81.13
2019-02-14T18:13:46.594Z,81.50
2019-02-14T18:16:17.844Z,82.04
2019-02-14T18:18:46.983Z,83.10
2019-02-14T18:21:17.931Z,83.22
2019-02-14T18:23:48.068Z,83.39
2019-02-14T18:26:17.153Z,83.63
2019-02-14T18:28:47.483Z,83.30
2019-02-14T18:31:20.351Z,83.05
2019-02-14T18:33:49.442Z,83.14
2019-02-14T18:36:20.669Z,83.14
2019-02-14T18:38:51.060Z,83.91
2019-02-14T18:41:22.493Z,84.16
2019-02-14T18:43:51.676Z,83.63
2019-02-14T18:46:21.714Z,84.18
2019-02-14T18:48:52.418Z,83.84
2019-02-14T18:51:21.501Z,84.42
2019-02-14T18:53:50.560Z,84.46
2019-02-14T18:56:19.639Z,85.89
2019-02-14T18:58:48.749Z,86.04
2019-02-14T19:01:17.840Z,85.99
2019-02-14T19:03:46.970Z,85.83
2019-02-14T19:06:16.262Z,86.59
2019-02-14T19:08:45.406Z,86.86
2019-02-14T19:11:15.462Z,87.27
2019-02-14T19:13:44.653Z,87.27
2019-02-14T19:16:13.913Z,86.35
2019-02-14T19:18:43.066Z,85.93
2019-02-14T19:21:14.257Z,86.20
2019-02-14T19:23:43.390Z,85.85
2019-02-14T19:26:12.513Z,85.98
2019-02-14T19:28:42.567Z,86.01
2019-02-14T19:31:11.976Z,85.99
2019-02-14T19:33:41.075Z,86.22
2019-02-14T19:36:10.221Z,85.37
2019-02-14T19:38:39.390Z,85.99
2019-02-14T19:41:08.526Z,86.20
2019-02-14T19:43:38.796Z,86.55
2019-02-14T19:46:10.153Z,86.43
2019-02-14T19:48:39.202Z,85.33
2019-02-14T19:51:08.308Z,86.83
2019-02-14T19:53:41.222Z,87.19
2019-02-14T19:56:10.307Z,87.12
2019-02-14T19:58:40.468Z,87.76
2019-02-14T20:01:09.624Z,87.82
2019-02-14T20:03:38.700Z,86.90
2019-02-14T20:06:07.806Z,86.90
2019-02-14T20:08:36.933Z,87.60
2019-02-14T20:11:06.110Z,86.92
2019-02-14T20:13:35.138Z,86.86
2019-02-14T20:16:04.956Z,87.27
2019-02-14T20:18:36.475Z,87.36
2019-02-14T20:21:05.705Z,86.99
2019-02-14T20:23:36.028Z,87.12
2019-02-14T20:26:05.327Z,86.83
2019-02-14T20:28:35.733Z,87.17
2019-02-14T20:31:07.415Z,87.47
2019-02-14T20:33:36.615Z,87.25
2019-02-14T20:36:05.843Z,86.83
2019-02-14T20:38:36.566Z,87.87
2019-02-14T20:41:05.863Z,88.04
2019-02-14T20:43:35.186Z,88.55
2019-02-14T20:46:04.311Z,88.17
2019-02-14T20:48:35.231Z,87.94
2019-02-14T20:51:04.303Z,87.64
2019-02-14T20:53:33.438Z,87.02
2019-02-14T20:56:04.534Z,86.95
2019-02-14T20:58:33.609Z,86.92
2019-02-14T21:01:04.306Z,87.10
2019-02-14T21:03:33.490Z,87.41
2019-02-14T21:06:02.545Z,87.46
2019-02-14T21:08:31.678Z,87.76
2019-02-14T21:11:00.824Z,86.97
2019-02-14T21:13:32.039Z,87.33
2019-02-14T21:16:01.123Z,87.72
2019-02-14T21:18:30.260Z,87.83
2019-02-14T21:20:59.365Z,87.80
2019-02-14T21:23:28.472Z,87.97
2019-02-14T21:25:57.579Z,87.97
2019-02-14T21:28:26.737Z,88.03
2019-02-14T21:30:55.812Z,87.59
2019-02-14T21:33:27.060Z,87.82
2019-02-14T21:35:56.108Z,88.09
2019-02-14T21:38:25.214Z,87.37
2019-02-14T21:40:54.508Z,87.18
2019-02-14T21:43:23.598Z,87.80
2019-02-14T21:45:52.716Z,88.13
2019-02-14T21:48:21.856Z,87.90
2019-02-14T21:50:52.580Z,87.91
2019-02-14T21:53:21.694Z,87.69
2019-02-14T21:55:50.828Z,87.59
2019-02-14T21:58:22.284Z,87.34
2019-02-14T22:00:53.216Z,87.78
2019-02-14T22:03:22.458Z,87.71
2019-02-14T22:05:51.591Z,87.77
2019-02-14T22:08:23.607Z,88.54
2019-02-14T22:10:52.718Z,88.19
2019-02-14T22:13:24.742Z,88.98
2019-02-14T22:15:54.081Z,88.67
2019-02-14T22:18:24.256Z,88.32
2019-02-14T22:20:53.490Z,88.94
2019-02-14T22:23:22.642Z,88.72
2019-02-14T22:25:51.829Z,90.08
2019-02-14T22:28:21.054Z,90.14
2019-02-14T22:30:50.204Z,89.76
2019-02-14T22:33:19.316Z,89.18
2019-02-14T22:35:50.738Z,89.32
2019-02-14T22:38:19.800Z,88.98
2019-02-14T22:40:48.984Z,88.88
2019-02-14T22:43:18.230Z,88.76
2019-02-14T22:45:49.737Z,88.84
2019-02-14T22:48:18.812Z,88.76
2019-02-14T22:50:47.864Z,88.20
2019-02-14T22:53:16.913Z,87.03
2019-02-14T22:55:46.014Z,87.89
2019-02-14T22:58:15.070Z,89.08
2019-02-14T23:00:47.527Z,89.04
2019-02-14T23:03:16.636Z,89.41
2019-02-14T23:05:45.958Z,89.09
2019-02-14T23:08:14.965Z,89.44
2019-02-14T23:10:44.871Z,89.53
2019-02-14T23:13:13.958Z,89.19
2019-02-14T23:15:45.553Z,88.36
2019-02-14T23:18:14.649Z,88.55
2019-02-14T23:20:43.754Z,88.75
2019-02-14T23:23:12.893Z,88.84
2019-02-14T23:25:42.031Z,88.01
2019-02-14T23:28:11.146Z,88.38
2019-02-14T23:30:44.723Z,88.09
2019-02-14T23:33:14.686Z,87.79
2019-02-14T23:35:43.796Z,88.66
2019-02-14T23:38:14.406Z,89.31
2019-02-14T23:40:43.507Z,89.28
2019-02-14T23:43:12.662Z,89.97
2019-02-14T23:45:41.762Z,89.90
2019-02-14T23:48:10.860Z,89.84
2019-02-14T23:50:41.503Z,89.89
2019-02-14T23:53:10.668Z,89.27
2019-02-14T23:55:42.804Z,88.63
2019-02-14T23:58:11.910Z,87.99
